createdAt,value
2023-05-03T00:01:44.135Z,75.15
2023-05-03T00:04:10.979Z,75.13
2023-05-03T00:06:37.594Z,75.26
2023-05-03T00:09:04.385Z,75.77
2023-05-03T00:11:30.910Z,75.91
2023-05-03T00:13:57.526Z,75.94
2023-05-03T00:16:24.129Z,76.04
2023-05-03T00:18:50.762Z,76.48
2023-05-03T00:21:17.403Z,76.46
2023-05-03T00:23:44.089Z,76.78
2023-05-03T00:26:10.872Z,76.83
2023-05-03T00:28:37.562Z,76.96
2023-05-03T00:31:11.028Z,77.26
2023-05-03T00:33:38.893Z,77.73
2023-05-03T00:36:09.466Z,77.44
2023-05-03T00:38:36.641Z,77.83
2023-05-03T00:41:03.519Z,77.88
2023-05-03T00:43:30.123Z,78.09
2023-05-03T00:46:08.275Z,77.73
2023-05-03T00:48:42.454Z,78.08
2023-05-03T00:51:13.078Z,78.35
2023-05-03T00:53:40.472Z,78.31
2023-05-03T00:56:07.457Z,78.29
2023-05-03T00:58:36.369Z,78.79
2023-05-03T01:01:03.378Z,79.04
2023-05-03T01:03:29.997Z,79.16
2023-05-03T01:06:13.582Z,79.31
2023-05-03T01:09:10.768Z,79.87
2023-05-03T01:12:14.142Z,79.82
2023-05-03T01:14:49.699Z,80.30
2023-05-03T01:17:20.085Z,80.38
2023-05-03T01:19:54.603Z,80.30
2023-05-03T01:22:34.160Z,80.55
2023-05-03T01:25:12.038Z,80.51
2023-05-03T01:27:40.455Z,80.91
2023-05-03T01:30:11.594Z,81.14
2023-05-03T01:32:41.128Z,81.19
2023-05-03T01:35:29.349Z,81.66
2023-05-03T01:37:57.568Z,81.62
2023-05-03T01:40:28.022Z,81.34
2023-05-03T01:42:56.619Z,81.64
2023-05-03T01:45:23.424Z,81.61
2023-05-03T01:47:50.037Z,81.77
2023-05-03T01:50:17.713Z,81.59
2023-05-03T01:52:45.288Z,81.70
2023-05-03T01:55:11.960Z,82.05
2023-05-03T01:57:38.514Z,82.03
2023-05-03T02:00:05.759Z,82.27
2023-05-03T02:02:32.566Z,82.42
2023-05-03T02:04:59.323Z,82.49
2023-05-03T02:07:25.982Z,82.44
2023-05-03T02:09:52.532Z,82.46
2023-05-03T02:12:19.121Z,82.56
2023-05-03T02:14:45.693Z,82.49
2023-05-03T02:17:12.392Z,82.45
2023-05-03T02:19:39.072Z,82.45
2023-05-03T02:22:05.921Z,82.76
2023-05-03T02:24:36.089Z,82.85
2023-05-03T02:27:06.184Z,83.00
2023-05-03T02:29:32.862Z,83.17
2023-05-03T02:31:59.437Z,83.28
2023-05-03T02:34:27.263Z,83.33
2023-05-03T02:36:53.937Z,83.04
2023-05-03T02:39:20.618Z,83.00
2023-05-03T02:41:47.906Z,82.69
2023-05-03T02:44:14.658Z,82.76
2023-05-03T02:46:42.196Z,82.75
2023-05-03T02:49:09.503Z,82.90
2023-05-03T02:51:36.366Z,83.43
2023-05-03T02:54:03.441Z,83.27
2023-05-03T02:56:30.014Z,83.40
2023-05-03T02:58:57.527Z,83.76
2023-05-03T03:01:24.322Z,83.80
2023-05-03T03:03:51.074Z,83.74
2023-05-03T03:06:17.755Z,83.65
2023-05-03T03:08:44.291Z,83.68
2023-05-03T03:11:10.951Z,84.02
2023-05-03T03:13:39.843Z,84.30
2023-05-03T03:18:37.650Z,84.20
2023-05-03T03:21:04.507Z,84.19
2023-05-03T03:23:31.255Z,84.63
2023-05-03T03:25:57.847Z,84.80
2023-05-03T03:28:24.461Z,84.66
2023-05-03T03:30:51.176Z,84.85
2023-05-03T03:33:17.938Z,84.63
2023-05-03T03:35:44.710Z,84.52
2023-05-03T03:38:11.325Z,84.85
2023-05-03T03:40:37.963Z,84.36
2023-05-03T03:43:04.490Z,84.55
2023-05-03T03:45:31.069Z,84.46
2023-05-03T03:47:58.295Z,84.08
2023-05-03T03:50:26.141Z,84.08
2023-05-03T03:52:52.760Z,83.48
2023-05-03T03:55:19.450Z,83.46
2023-05-03T03:57:46.184Z,83.65
2023-05-03T04:00:13.306Z,83.20
2023-05-03T04:02:40.027Z,82.95
2023-05-03T04:05:08.094Z,82.56
2023-05-03T04:07:34.684Z,82.07
2023-05-03T04:10:01.641Z,82.75
2023-05-03T04:12:28.475Z,82.53
2023-05-03T04:14:57.285Z,81.99
2023-05-03T04:17:23.898Z,82.60
2023-05-03T04:19:50.608Z,81.93
2023-05-03T04:22:17.164Z,82.36
2023-05-03T04:24:43.970Z,82.33
2023-05-03T04:27:11.437Z,82.35
2023-05-03T04:29:38.643Z,82.46
2023-05-03T04:32:14.202Z,82.27
2023-05-03T04:34:42.924Z,82.24
2023-05-03T04:37:15.179Z,82.28
2023-05-03T04:39:41.756Z,82.34
2023-05-03T04:42:09.009Z,82.25
2023-05-03T04:44:35.912Z,82.54
2023-05-03T04:47:02.810Z,82.33
2023-05-03T04:49:29.555Z,82.15
2023-05-03T04:51:56.499Z,81.37
2023-05-03T04:54:24.610Z,81.57
2023-05-03T04:56:51.666Z,81.10
2023-05-03T04:59:19.481Z,81.35
2023-05-03T05:01:51.424Z,81.09
2023-05-03T05:04:19.738Z,81.17
2023-05-03T05:06:46.485Z,81.01
2023-05-03T05:09:28.678Z,81.06
2023-05-03T05:11:57.289Z,80.82
2023-05-03T05:14:24.265Z,80.94
2023-05-03T05:16:51.115Z,80.67
2023-05-03T05:19:17.870Z,80.52
2023-05-03T05:21:44.548Z,80.18
2023-05-03T05:24:12.392Z,80.08
2023-05-03T05:26:39.111Z,80.19
2023-05-03T05:29:06.364Z,79.93
2023-05-03T05:31:33.118Z,79.55
2023-05-03T05:34:00.610Z,79.77
2023-05-03T05:36:29.294Z,79.47
2023-05-03T05:38:55.974Z,79.79
2023-05-03T05:41:22.642Z,79.44
2023-05-03T05:43:49.767Z,79.51
2023-05-03T05:46:16.920Z,79.44
2023-05-03T05:48:43.591Z,79.11
2023-05-03T05:51:10.200Z,78.94
2023-05-03T05:53:37.749Z,78.65
2023-05-03T05:56:06.808Z,79.10
2023-05-03T05:58:33.466Z,78.95
2023-05-03T06:01:03.894Z,78.38
2023-05-03T06:03:31.831Z,78.54
2023-05-03T06:05:58.863Z,78.91
2023-05-03T06:08:25.907Z,78.99
2023-05-03T06:10:53.952Z,77.45
2023-05-03T06:13:20.912Z,76.60
2023-05-03T06:15:47.763Z,73.98
2023-05-03T06:18:19.201Z,72.33
2023-05-03T06:20:51.436Z,71.35
2023-05-03T06:23:18.920Z,69.80
2023-05-03T06:25:48.781Z,69.23
2023-05-03T06:28:16.588Z,68.13
2023-05-03T06:30:52.197Z,66.61
2023-05-03T06:33:18.976Z,66.04
2023-05-03T06:35:47.279Z,65.43
2023-05-03T06:38:14.142Z,64.25
2023-05-03T06:40:41.496Z,63.97
2023-05-03T06:43:08.262Z,63.31
2023-05-03T06:45:35.413Z,62.32
2023-05-03T06:48:02.099Z,62.07
2023-05-03T06:50:28.781Z,60.56
2023-05-03T06:52:56.650Z,59.24
2023-05-03T06:55:23.535Z,59.80
2023-05-03T06:57:52.861Z,60.78
2023-05-03T07:00:21.622Z,62.30
2023-05-03T07:02:48.697Z,63.36
2023-05-03T07:05:18.849Z,63.67
2023-05-03T07:07:46.264Z,62.99
2023-05-03T07:10:12.871Z,61.35
2023-05-03T07:12:39.616Z,59.79
2023-05-03T07:15:07.090Z,58.93
2023-05-03T07:17:34.028Z,58.74
2023-05-03T07:20:00.716Z,58.80
2023-05-03T07:22:28.452Z,59.09
2023-05-03T07:24:58.915Z,58.75
2023-05-03T07:27:27.796Z,57.61
2023-05-03T07:29:54.805Z,57.39
2023-05-03T07:32:24.569Z,57.25
2023-05-03T07:34:51.627Z,57.64
2023-05-03T07:37:18.500Z,58.10
2023-05-03T07:39:45.859Z,58.07
2023-05-03T07:42:12.514Z,59.03
2023-05-03T07:44:39.519Z,57.23
2023-05-03T07:47:08.483Z,56.81
2023-05-03T07:49:37.960Z,56.68
2023-05-03T07:52:04.630Z,57.10
2023-05-03T07:54:31.334Z,57.18
2023-05-03T07:56:58.983Z,58.12
2023-05-03T07:59:25.515Z,57.16
2023-05-03T08:01:52.536Z,56.51
2023-05-03T08:04:19.343Z,57.08
2023-05-03T08:06:46.377Z,57.70
2023-05-03T08:09:14.112Z,58.07
2023-05-03T08:11:43.213Z,56.65
2023-05-03T08:14:10.703Z,54.48
2023-05-03T08:16:37.998Z,54.53
2023-05-03T08:19:05.002Z,54.58
2023-05-03T08:21:33.502Z,55.91
2023-05-03T08:24:01.138Z,55.53
2023-05-03T08:26:29.869Z,54.89
2023-05-03T08:28:56.777Z,55.04
2023-05-03T08:31:24.699Z,56.05
2023-05-03T08:33:52.432Z,57.07
2023-05-03T08:36:19.039Z,57.51
2023-05-03T08:38:46.058Z,57.50
2023-05-03T08:41:21.693Z,56.45
2023-05-03T08:43:52.716Z,55.21
2023-05-03T08:46:19.550Z,54.17
2023-05-03T08:48:49.408Z,53.99
2023-05-03T08:51:21.792Z,55.71
2023-05-03T08:53:48.998Z,56.14
2023-05-03T08:56:33.398Z,55.56
2023-05-03T08:59:07.585Z,54.37
2023-05-03T09:01:35.937Z,52.75
2023-05-03T09:04:04.284Z,50.83
2023-05-03T09:06:33.275Z,50.28
2023-05-03T09:09:01.240Z,51.58
2023-05-03T09:11:32.486Z,52.41
2023-05-03T09:14:21.321Z,52.43
2023-05-03T09:16:48.467Z,51.89
2023-05-03T09:19:16.150Z,51.11
2023-05-03T09:21:50.685Z,52.17
2023-05-03T09:24:20.561Z,52.52
2023-05-03T09:26:51.067Z,52.85
2023-05-03T09:29:32.509Z,53.16
2023-05-03T09:32:02.766Z,53.42
2023-05-03T09:34:31.717Z,53.88
2023-05-03T09:37:00.389Z,55.02
2023-05-03T09:39:27.314Z,55.62
2023-05-03T09:41:54.495Z,56.40
2023-05-03T09:47:22.013Z,57.49
2023-05-03T09:49:49.912Z,57.25
2023-05-03T09:52:16.643Z,58.64
2023-05-03T09:54:50.986Z,58.22
2023-05-03T09:57:18.727Z,56.43
2023-05-03T09:59:47.713Z,55.36
2023-05-03T10:02:17.377Z,52.71
2023-05-03T10:04:51.625Z,52.01
2023-05-03T10:07:28.445Z,52.15
2023-05-03T10:10:03.895Z,52.34
2023-05-03T10:12:30.708Z,53.08
2023-05-03T10:15:01.372Z,53.63
2023-05-03T10:17:47.680Z,54.23
2023-05-03T10:20:20.876Z,54.24
2023-05-03T10:23:14.386Z,54.62
2023-05-03T10:26:07.157Z,55.63
2023-05-03T10:28:34.398Z,55.77
2023-05-03T10:31:02.110Z,56.17
2023-05-03T10:33:32.727Z,55.93
2023-05-03T10:36:01.390Z,56.78
2023-05-03T10:38:29.585Z,56.34
2023-05-03T10:40:56.926Z,55.99
2023-05-03T10:43:32.525Z,55.84
2023-05-03T10:45:59.669Z,56.15
2023-05-03T10:48:28.558Z,56.50
2023-05-03T10:50:56.544Z,56.63
2023-05-03T10:53:39.363Z,57.32
2023-05-03T10:56:12.260Z,57.58
2023-05-03T10:58:47.705Z,58.61
2023-05-03T11:01:17.178Z,57.72
2023-05-03T11:03:50.046Z,56.19
2023-05-03T11:06:37.230Z,54.06
2023-05-03T11:09:06.750Z,52.84
2023-05-03T11:14:04.027Z,52.78
2023-05-03T11:16:32.328Z,53.38
2023-05-03T11:18:59.491Z,52.65
2023-05-03T11:21:27.320Z,52.61
2023-05-03T11:23:53.954Z,53.16
2023-05-03T11:26:26.469Z,53.15
2023-05-03T11:28:54.210Z,53.24
2023-05-03T11:31:21.387Z,53.12
2023-05-03T11:33:49.931Z,53.01
2023-05-03T11:36:16.977Z,53.21
2023-05-03T11:38:45.195Z,53.39
2023-05-03T11:41:17.449Z,53.77
2023-05-03T11:43:45.580Z,52.94
2023-05-03T11:46:14.762Z,52.02
2023-05-03T11:48:44.130Z,51.87
2023-05-03T11:51:11.943Z,52.13
2023-05-03T11:53:42.856Z,52.76
2023-05-03T11:56:21.934Z,51.09
2023-05-03T11:58:57.530Z,50.67
2023-05-03T12:01:26.498Z,50.31
2023-05-03T12:04:02.466Z,49.69
2023-05-03T12:06:34.221Z,49.37
2023-05-03T12:09:03.950Z,49.50
2023-05-03T12:11:33.533Z,48.97
2023-05-03T12:14:03.103Z,49.53
2023-05-03T12:16:47.482Z,49.04
2023-05-03T12:19:34.841Z,49.87
2023-05-03T12:22:23.638Z,50.42
2023-05-03T12:25:00.351Z,50.32
2023-05-03T12:27:32.555Z,50.46
2023-05-03T12:30:01.384Z,50.84
2023-05-03T12:32:28.590Z,51.15
2023-05-03T12:35:01.881Z,50.61
2023-05-03T12:37:33.178Z,51.20
2023-05-03T12:40:18.694Z,50.81
2023-05-03T12:42:49.408Z,51.58
2023-05-03T12:45:16.449Z,51.27
2023-05-03T12:47:48.985Z,50.37
2023-05-03T12:50:18.773Z,49.14
2023-05-03T12:52:46.126Z,48.31
2023-05-03T12:55:18.181Z,47.60
2023-05-03T12:58:10.335Z,48.27
2023-05-03T13:00:39.012Z,48.26
2023-05-03T13:03:19.544Z,47.06
2023-05-03T13:05:50.985Z,46.95
2023-05-03T13:08:22.784Z,47.37
2023-05-03T13:10:50.784Z,46.78
2023-05-03T13:13:17.439Z,46.41
2023-05-03T13:15:45.725Z,45.52
2023-05-03T13:18:14.698Z,43.94
2023-05-03T13:20:42.435Z,43.65
2023-05-03T13:23:09.233Z,43.43
2023-05-03T13:25:35.965Z,43.33
2023-05-03T13:28:03.036Z,42.51
2023-05-03T13:30:30.736Z,41.82
2023-05-03T13:32:57.315Z,41.68
2023-05-03T13:35:25.795Z,41.07
2023-05-03T13:37:53.326Z,41.56
2023-05-03T13:40:24.723Z,41.74
2023-05-03T13:42:51.847Z,41.26
2023-05-03T13:45:19.369Z,41.33
2023-05-03T13:50:15.935Z,41.76
2023-05-03T13:52:44.807Z,42.57
2023-05-03T13:55:11.689Z,43.11
2023-05-03T13:57:38.332Z,43.41
2023-05-03T14:00:07.203Z,43.18
2023-05-03T14:02:34.493Z,40.62
2023-05-03T14:05:05.939Z,41.31
2023-05-03T14:07:32.782Z,40.96
2023-05-03T14:10:00.651Z,41.04
2023-05-03T14:12:27.833Z,40.69
2023-05-03T14:14:55.342Z,39.92
2023-05-03T14:17:21.974Z,39.74
2023-05-03T14:19:51.024Z,39.76
2023-05-03T14:22:17.639Z,40.21
2023-05-03T14:24:44.291Z,40.42
2023-05-03T14:27:13.318Z,39.16
2023-05-03T14:29:40.319Z,39.86
2023-05-03T14:32:07.078Z,39.57
2023-05-03T14:34:33.719Z,39.86
2023-05-03T14:37:00.412Z,38.94
2023-05-03T14:39:27.366Z,39.26
2023-05-03T14:41:55.835Z,40.24
2023-05-03T14:44:23.217Z,39.72
2023-05-03T14:46:59.236Z,39.98
2023-05-03T14:49:26.562Z,39.99
2023-05-03T14:51:53.430Z,40.22
2023-05-03T14:54:26.128Z,39.70
2023-05-03T14:56:54.803Z,40.15
2023-05-03T14:59:21.475Z,40.08
2023-05-03T15:01:48.140Z,41.04
2023-05-03T15:04:15.767Z,40.55
2023-05-03T15:06:42.962Z,40.06
2023-05-03T15:09:12.062Z,40.22
2023-05-03T15:11:41.490Z,40.79
2023-05-03T15:14:10.219Z,40.48
2023-05-03T15:16:37.641Z,40.74
2023-05-03T15:19:04.922Z,40.88
2023-05-03T15:21:31.722Z,40.71
2023-05-03T15:23:58.363Z,40.93
2023-05-03T15:26:25.289Z,40.33
2023-05-03T15:28:52.106Z,40.57
2023-05-03T15:31:22.390Z,40.43
2023-05-03T15:33:49.293Z,40.31
2023-05-03T15:36:16.937Z,40.59
2023-05-03T15:38:44.059Z,40.45
2023-05-03T15:41:10.714Z,39.99
2023-05-03T15:43:37.533Z,39.89
2023-05-03T15:46:05.483Z,40.51
2023-05-03T15:48:32.127Z,40.99
2023-05-03T15:50:59.716Z,41.21
2023-05-03T15:53:27.065Z,40.40
2023-05-03T15:55:58.032Z,40.47
2023-05-03T15:58:25.892Z,40.79
2023-05-03T16:00:52.560Z,41.12
2023-05-03T16:03:19.552Z,40.90
2023-05-03T16:05:46.866Z,40.74
2023-05-03T16:08:13.670Z,40.76
2023-05-03T16:10:40.452Z,40.86
2023-05-03T16:13:08.763Z,40.41
2023-05-03T16:15:38.984Z,40.53
2023-05-03T16:18:06.235Z,40.73
2023-05-03T16:20:32.875Z,40.75
2023-05-03T16:22:59.452Z,41.05
2023-05-03T16:25:26.560Z,40.79
2023-05-03T16:27:53.217Z,40.44
2023-05-03T16:30:20.132Z,40.52
2023-05-03T16:32:48.281Z,40.72
2023-05-03T16:35:15.163Z,40.68
2023-05-03T16:37:43.612Z,41.24
2023-05-03T16:40:11.494Z,41.83
2023-05-03T16:42:40.536Z,41.42
2023-05-03T16:45:11.532Z,41.25
2023-05-03T16:47:38.680Z,41.54
2023-05-03T16:50:08.020Z,41.39
2023-05-03T16:52:39.735Z,41.70
2023-05-03T16:55:10.917Z,41.30
2023-05-03T16:57:38.628Z,42.21
2023-05-03T17:00:10.165Z,42.11
2023-05-03T17:02:38.554Z,42.71
2023-05-03T17:05:06.459Z,42.90
2023-05-03T17:07:35.660Z,42.88
2023-05-03T17:10:03.592Z,43.82
2023-05-03T17:12:31.774Z,44.14
2023-05-03T17:14:59.386Z,44.38
2023-05-03T17:17:28.475Z,44.58
2023-05-03T17:19:55.368Z,45.02
2023-05-03T17:22:23.001Z,45.72
2023-05-03T17:24:49.836Z,46.01
2023-05-03T17:27:16.515Z,46.46
2023-05-03T17:29:43.172Z,46.29
2023-05-03T17:32:09.822Z,46.39
2023-05-03T17:34:37.412Z,46.95
2023-05-03T17:37:04.057Z,47.49
2023-05-03T17:39:30.992Z,47.95
2023-05-03T17:41:57.948Z,48.01
2023-05-03T17:44:24.602Z,48.73
2023-05-03T17:46:51.676Z,49.39
2023-05-03T17:49:22.205Z,49.73
2023-05-03T17:51:49.797Z,50.44
2023-05-03T17:54:16.492Z,50.62
2023-05-03T17:56:45.849Z,50.88
2023-05-03T17:59:12.470Z,51.20
2023-05-03T18:01:39.063Z,52.00
2023-05-03T18:04:05.837Z,52.51
2023-05-03T18:06:32.605Z,52.56
2023-05-03T18:08:59.264Z,53.02
2023-05-03T18:11:25.979Z,53.12
2023-05-03T18:13:53.512Z,53.32
2023-05-03T18:16:20.239Z,53.39
2023-05-03T18:18:46.823Z,53.53
2023-05-03T18:21:13.912Z,53.82
2023-05-03T18:23:42.377Z,54.49
2023-05-03T18:26:10.570Z,55.74
2023-05-03T18:28:37.705Z,55.79
2023-05-03T18:31:04.451Z,56.42
2023-05-03T18:33:32.938Z,56.68
2023-05-03T18:35:59.452Z,57.41
2023-05-03T18:38:26.311Z,57.83
2023-05-03T18:40:54.815Z,58.45
2023-05-03T18:43:22.430Z,59.35
2023-05-03T18:45:52.203Z,59.47
2023-05-03T18:48:21.314Z,59.30
2023-05-03T18:50:49.373Z,58.99
2023-05-03T18:53:17.439Z,59.78
2023-05-03T18:55:45.101Z,59.48
2023-05-03T18:58:11.656Z,59.66
2023-05-03T19:00:39.413Z,59.71
2023-05-03T19:03:06.413Z,59.73
2023-05-03T19:05:34.912Z,61.08
2023-05-03T19:08:01.505Z,61.99
2023-05-03T19:10:28.219Z,62.74
2023-05-03T19:12:54.840Z,64.19
2023-05-03T19:15:22.553Z,63.74
2023-05-03T19:17:49.275Z,63.52
2023-05-03T19:20:16.393Z,63.26
2023-05-03T19:22:43.987Z,63.62
2023-05-03T19:25:10.818Z,63.47
2023-05-03T19:27:39.694Z,64.15
2023-05-03T19:30:07.275Z,64.34
2023-05-03T19:32:39.098Z,64.01
2023-05-03T19:35:08.774Z,65.27
2023-05-03T19:37:35.699Z,65.87
2023-05-03T19:40:02.615Z,66.44
2023-05-03T19:42:29.854Z,65.88
2023-05-03T19:44:56.489Z,65.98
2023-05-03T19:47:23.664Z,66.02
2023-05-03T19:49:50.529Z,65.72
2023-05-03T19:52:17.415Z,65.70
2023-05-03T19:54:44.290Z,66.10
2023-05-03T19:57:11.962Z,67.27
2023-05-03T19:59:38.590Z,68.49
2023-05-03T20:02:05.722Z,68.07
2023-05-03T20:04:32.886Z,67.41
2023-05-03T20:07:00.899Z,67.64
2023-05-03T20:09:30.883Z,67.32
2023-05-03T20:11:58.858Z,67.51
2023-05-03T20:14:29.100Z,68.54
2023-05-03T20:16:58.271Z,68.35
2023-05-03T20:19:26.137Z,69.32
2023-05-03T20:21:52.929Z,71.25
2023-05-03T20:24:23.112Z,71.50
2023-05-03T20:26:50.467Z,71.78
2023-05-03T20:29:18.209Z,71.57
2023-05-03T20:31:47.415Z,70.63
2023-05-03T20:34:15.001Z,70.56
2023-05-03T20:36:41.722Z,70.24
2023-05-03T20:39:09.702Z,69.82
2023-05-03T20:41:36.420Z,70.32
2023-05-03T20:44:04.131Z,70.09
2023-05-03T20:46:30.968Z,70.46
2023-05-03T20:49:01.658Z,71.09
2023-05-03T20:51:28.203Z,72.06
2023-05-03T20:53:54.834Z,73.85
2023-05-03T20:56:22.410Z,73.61
2023-05-03T20:58:50.622Z,74.75
2023-05-03T21:01:17.871Z,74.30
2023-05-03T21:03:44.619Z,74.98
2023-05-03T21:06:11.179Z,74.38
2023-05-03T21:08:37.829Z,75.21
2023-05-03T21:11:04.452Z,74.72
2023-05-03T21:13:31.213Z,74.26
2023-05-03T21:15:57.967Z,73.74
2023-05-03T21:18:25.022Z,73.52
2023-05-03T21:20:53.576Z,73.69
2023-05-03T21:23:20.405Z,73.25
2023-05-03T21:25:46.962Z,73.90
2023-05-03T21:28:13.571Z,73.38
2023-05-03T21:30:42.240Z,74.33
2023-05-03T21:33:08.950Z,75.58
2023-05-03T21:35:35.667Z,76.37
2023-05-03T21:38:02.240Z,75.84
2023-05-03T21:40:28.924Z,75.67
2023-05-03T21:42:55.606Z,75.76
2023-05-03T21:45:23.241Z,76.18
2023-05-03T21:47:50.348Z,77.03
2023-05-03T21:50:16.974Z,77.42
2023-05-03T21:52:43.933Z,77.02
2023-05-03T21:55:10.606Z,76.83
2023-05-03T21:57:37.945Z,76.51
2023-05-03T22:00:05.790Z,76.35
2023-05-03T22:02:32.729Z,76.27
2023-05-03T22:04:59.409Z,75.93
2023-05-03T22:07:26.124Z,76.46
2023-05-03T22:09:52.832Z,76.33
2023-05-03T22:12:23.910Z,76.57
2023-05-03T22:14:51.196Z,76.67
2023-05-03T22:17:18.000Z,77.76
2023-05-03T22:19:44.803Z,77.65
2023-05-03T22:22:11.548Z,78.28
2023-05-03T22:24:38.223Z,79.53
2023-05-03T22:27:04.818Z,79.53
2023-05-03T22:29:31.649Z,79.08
2023-05-03T22:31:59.005Z,78.40
2023-05-03T22:34:25.691Z,79.11
2023-05-03T22:36:52.261Z,79.49
2023-05-03T22:39:18.967Z,79.71
2023-05-03T22:41:46.061Z,79.15
2023-05-03T22:44:13.205Z,79.17
2023-05-03T22:46:39.992Z,79.16
2023-05-03T22:49:07.423Z,79.80
2023-05-03T22:51:34.113Z,79.76
2023-05-03T22:54:00.945Z,79.34
2023-05-03T22:56:27.501Z,79.11
2023-05-03T22:58:54.115Z,78.93
2023-05-03T23:01:20.852Z,78.62
2023-05-03T23:03:47.655Z,78.84
2023-05-03T23:06:14.951Z,78.74
2023-05-03T23:08:41.589Z,78.81
2023-05-03T23:11:08.353Z,79.36
2023-05-03T23:13:35.378Z,79.92
2023-05-03T23:16:02.259Z,80.06
2023-05-03T23:18:29.107Z,79.81
2023-05-03T23:20:55.776Z,79.87
2023-05-03T23:23:22.395Z,80.33
2023-05-03T23:25:49.078Z,80.80
2023-05-03T23:28:15.794Z,81.06
2023-05-03T23:30:44.287Z,81.41
2023-05-03T23:33:11.400Z,82.12
2023-05-03T23:35:38.588Z,81.76
2023-05-03T23:38:05.254Z,81.11
2023-05-03T23:40:32.018Z,80.93
2023-05-03T23:42:58.628Z,81.35
2023-05-03T23:45:27.044Z,81.73
2023-05-03T23:47:53.942Z,81.46
2023-05-03T23:50:20.763Z,81.31
2023-05-03T23:52:47.685Z,81.92
2023-05-03T23:55:14.556Z,82.37
2023-05-03T23:57:41.442Z,81.93
